sensor_id;sensor_type;location;lat;lon;timestamp;P1;durP1;ratioP1;P2;durP2;ratioP2
54845;SDS011;53889;50.084;8.646;2023-06-26T00:01:25;8.50;;;6.00;;
54845;SDS011;53889;50.084;8.646;2023-06-26T00:03:54;7.28;;;5.57;;
54845;SDS011;53889;50.084;8.646;2023-06-26T00:06:21;7.43;;;5.63;;
54845;SDS011;53889;50.084;8.646;2023-06-26T00:08:49;7.10;;;5.43;;
54845;SDS011;53889;50.084;8.646;2023-06-26T00:11:16;7.93;;;5.70;;
54845;SDS011;53889;50.084;8.646;2023-06-26T00:13:43;6.95;;;5.30;;
54845;SDS011;53889;50.084;8.646;2023-06-26T00:16:11;8.73;;;5.60;;
54845;SDS011;53889;50.084;8.646;2023-06-26T00:18:38;7.25;;;5.30;;
54845;SDS011;53889;50.084;8.646;2023-06-26T00:21:04;6.97;;;5.28;;
54845;SDS011;53889;50.084;8.646;2023-06-26T00:23:31;9.00;;;5.40;;
54845;SDS011;53889;50.084;8.646;2023-06-26T00:26:01;6.70;;;5.60;;
54845;SDS011;53889;50.084;8.646;2023-06-26T00:28:28;7.05;;;5.43;;
54845;SDS011;53889;50.084;8.646;2023-06-26T00:30:56;7.63;;;5.30;;
54845;SDS011;53889;50.084;8.646;2023-06-26T00:33:24;7.68;;;5.45;;
54845;SDS011;53889;50.084;8.646;2023-06-26T00:35:50;7.32;;;5.68;;
54845;SDS011;53889;50.084;8.646;2023-06-26T00:38:17;7.55;;;5.65;;
54845;SDS011;53889;50.084;8.646;2023-06-26T00:40:44;6.78;;;5.20;;
54845;SDS011;53889;50.084;8.646;2023-06-26T00:43:10;7.88;;;5.75;;
54845;SDS011;53889;50.084;8.646;2023-06-26T00:45:37;9.98;;;6.05;;
54845;SDS011;53889;50.084;8.646;2023-06-26T00:48:04;8.75;;;5.80;;
54845;SDS011;53889;50.084;8.646;2023-06-26T00:50:33;9.35;;;6.00;;
54845;SDS011;53889;50.084;8.646;2023-06-26T00:53:00;7.93;;;6.03;;
54845;SDS011;53889;50.084;8.646;2023-06-26T00:55:26;9.70;;;7.13;;
54845;SDS011;53889;50.084;8.646;2023-06-26T00:57:53;7.88;;;5.65;;
54845;SDS011;53889;50.084;8.646;2023-06-26T01:00:21;8.65;;;5.97;;
54845;SDS011;53889;50.084;8.646;2023-06-26T01:02:48;9.55;;;6.00;;
54845;SDS011;53889;50.084;8.646;2023-06-26T01:05:15;7.57;;;5.93;;
54845;SDS011;53889;50.084;8.646;2023-06-26T01:07:47;8.48;;;5.90;;
54845;SDS011;53889;50.084;8.646;2023-06-26T01:10:14;7.95;;;6.10;;
54845;SDS011;53889;50.084;8.646;2023-06-26T01:12:41;8.90;;;6.30;;
54845;SDS011;53889;50.084;8.646;2023-06-26T01:15:08;9.57;;;6.50;;
54845;SDS011;53889;50.084;8.646;2023-06-26T01:17:36;7.75;;;6.00;;
54845;SDS011;53889;50.084;8.646;2023-06-26T01:20:05;6.90;;;5.70;;
54845;SDS011;53889;50.084;8.646;2023-06-26T01:22:34;8.88;;;6.57;;
54845;SDS011;53889;50.084;8.646;2023-06-26T01:25:12;7.88;;;5.95;;
54845;SDS011;53889;50.084;8.646;2023-06-26T01:27:45;9.75;;;6.35;;
54845;SDS011;53889;50.084;8.646;2023-06-26T01:30:12;7.47;;;6.20;;
54845;SDS011;53889;50.084;8.646;2023-06-26T01:32:41;9.18;;;6.13;;
54845;SDS011;53889;50.084;8.646;2023-06-26T01:35:09;9.15;;;6.47;;
54845;SDS011;53889;50.084;8.646;2023-06-26T01:37:37;10.30;;;6.60;;
54845;SDS011;53889;50.084;8.646;2023-06-26T01:40:04;7.68;;;6.32;;
54845;SDS011;53889;50.084;8.646;2023-06-26T01:42:32;7.97;;;6.20;;
54845;SDS011;53889;50.084;8.646;2023-06-26T01:45:00;8.23;;;6.53;;
54845;SDS011;53889;50.084;8.646;2023-06-26T01:47:34;9.23;;;6.40;;
54845;SDS011;53889;50.084;8.646;2023-06-26T01:50:05;9.65;;;6.88;;
54845;SDS011;53889;50.084;8.646;2023-06-26T01:52:38;7.13;;;5.95;;
54845;SDS011;53889;50.084;8.646;2023-06-26T01:55:10;7.75;;;6.57;;
54845;SDS011;53889;50.084;8.646;2023-06-26T01:57:41;10.68;;;6.57;;
54845;SDS011;53889;50.084;8.646;2023-06-26T02:00:13;8.55;;;6.28;;
54845;SDS011;53889;50.084;8.646;2023-06-26T02:02:43;8.75;;;6.55;;
54845;SDS011;53889;50.084;8.646;2023-06-26T02:05:12;7.72;;;6.00;;
54845;SDS011;53889;50.084;8.646;2023-06-26T02:07:40;7.60;;;6.20;;
54845;SDS011;53889;50.084;8.646;2023-06-26T02:10:07;7.88;;;6.25;;
54845;SDS011;53889;50.084;8.646;2023-06-26T02:12:34;8.68;;;6.60;;
54845;SDS011;53889;50.084;8.646;2023-06-26T02:15:01;8.80;;;7.20;;
54845;SDS011;53889;50.084;8.646;2023-06-26T02:17:30;7.93;;;6.50;;
54845;SDS011;53889;50.084;8.646;2023-06-26T02:19:57;8.30;;;6.43;;
54845;SDS011;53889;50.084;8.646;2023-06-26T02:22:23;7.75;;;6.35;;
54845;SDS011;53889;50.084;8.646;2023-06-26T02:24:50;7.25;;;6.32;;
54845;SDS011;53889;50.084;8.646;2023-06-26T02:27:17;7.88;;;6.60;;
54845;SDS011;53889;50.084;8.646;2023-06-26T02:29:43;7.60;;;6.50;;
54845;SDS011;53889;50.084;8.646;2023-06-26T02:32:10;9.00;;;6.40;;
54845;SDS011;53889;50.084;8.646;2023-06-26T02:34:38;8.98;;;6.20;;
54845;SDS011;53889;50.084;8.646;2023-06-26T02:37:05;8.65;;;6.50;;
54845;SDS011;53889;50.084;8.646;2023-06-26T02:39:33;8.27;;;6.60;;
54845;SDS011;53889;50.084;8.646;2023-06-26T02:41:59;9.13;;;6.65;;
54845;SDS011;53889;50.084;8.646;2023-06-26T02:44:26;8.65;;;6.43;;
54845;SDS011;53889;50.084;8.646;2023-06-26T02:46:53;7.50;;;6.55;;
54845;SDS011;53889;50.084;8.646;2023-06-26T02:49:20;8.95;;;6.85;;
54845;SDS011;53889;50.084;8.646;2023-06-26T02:51:48;9.15;;;6.80;;
54845;SDS011;53889;50.084;8.646;2023-06-26T02:54:22;9.13;;;7.10;;
54845;SDS011;53889;50.084;8.646;2023-06-26T02:56:52;9.50;;;6.90;;
54845;SDS011;53889;50.084;8.646;2023-06-26T02:59:24;7.97;;;6.28;;
54845;SDS011;53889;50.084;8.646;2023-06-26T03:01:51;8.18;;;6.63;;
54845;SDS011;53889;50.084;8.646;2023-06-26T03:04:21;8.88;;;6.75;;
54845;SDS011;53889;50.084;8.646;2023-06-26T03:06:49;9.02;;;6.45;;
54845;SDS011;53889;50.084;8.646;2023-06-26T03:09:16;10.15;;;6.65;;
54845;SDS011;53889;50.084;8.646;2023-06-26T03:11:43;8.70;;;6.75;;
54845;SDS011;53889;50.084;8.646;2023-06-26T03:14:10;7.95;;;6.63;;
54845;SDS011;53889;50.084;8.646;2023-06-26T03:16:37;8.52;;;6.43;;
54845;SDS011;53889;50.084;8.646;2023-06-26T03:19:04;8.13;;;6.13;;
54845;SDS011;53889;50.084;8.646;2023-06-26T03:21:42;9.02;;;6.80;;
54845;SDS011;53889;50.084;8.646;2023-06-26T03:24:09;8.45;;;6.43;;
54845;SDS011;53889;50.084;8.646;2023-06-26T03:26:36;8.30;;;6.60;;
54845;SDS011;53889;50.084;8.646;2023-06-26T03:29:03;9.35;;;6.78;;
54845;SDS011;53889;50.084;8.646;2023-06-26T03:31:30;10.07;;;6.60;;
54845;SDS011;53889;50.084;8.646;2023-06-26T03:33:57;8.32;;;6.63;;
54845;SDS011;53889;50.084;8.646;2023-06-26T03:36:24;9.65;;;6.80;;
54845;SDS011;53889;50.084;8.646;2023-06-26T03:38:50;8.52;;;6.85;;
54845;SDS011;53889;50.084;8.646;2023-06-26T03:41:23;8.27;;;6.28;;
54845;SDS011;53889;50.084;8.646;2023-06-26T03:43:50;9.00;;;7.03;;
54845;SDS011;53889;50.084;8.646;2023-06-26T03:46:20;8.32;;;6.85;;
54845;SDS011;53889;50.084;8.646;2023-06-26T03:48:46;8.82;;;6.45;;
54845;SDS011;53889;50.084;8.646;2023-06-26T03:51:13;11.23;;;7.25;;
54845;SDS011;53889;50.084;8.646;2023-06-26T03:53:40;8.68;;;7.07;;
54845;SDS011;53889;50.084;8.646;2023-06-26T03:56:07;9.85;;;7.75;;
54845;SDS011;53889;50.084;8.646;2023-06-26T03:58:35;10.63;;;7.32;;
54845;SDS011;53889;50.084;8.646;2023-06-26T04:01:03;8.48;;;6.85;;
54845;SDS011;53889;50.084;8.646;2023-06-26T04:03:29;9.13;;;7.20;;
54845;SDS011;53889;50.084;8.646;2023-06-26T04:05:56;10.68;;;6.93;;
54845;SDS011;53889;50.084;8.646;2023-06-26T04:08:23;8.75;;;6.97;;
54845;SDS011;53889;50.084;8.646;2023-06-26T04:10:51;9.00;;;7.25;;
54845;SDS011;53889;50.084;8.646;2023-06-26T04:13:18;10.02;;;6.93;;
54845;SDS011;53889;50.084;8.646;2023-06-26T04:15:46;9.23;;;7.32;;
54845;SDS011;53889;50.084;8.646;2023-06-26T04:18:13;9.52;;;7.13;;
54845;SDS011;53889;50.084;8.646;2023-06-26T04:20:41;9.35;;;6.82;;
54845;SDS011;53889;50.084;8.646;2023-06-26T04:23:28;8.80;;;6.80;;
54845;SDS011;53889;50.084;8.646;2023-06-26T04:25:55;7.90;;;6.43;;
54845;SDS011;53889;50.084;8.646;2023-06-26T04:28:23;8.43;;;7.05;;
54845;SDS011;53889;50.084;8.646;2023-06-26T04:30:51;9.30;;;6.90;;
54845;SDS011;53889;50.084;8.646;2023-06-26T04:33:18;8.25;;;6.57;;
54845;SDS011;53889;50.084;8.646;2023-06-26T04:35:45;8.70;;;6.97;;
54845;SDS011;53889;50.084;8.646;2023-06-26T04:38:13;9.75;;;6.75;;
54845;SDS011;53889;50.084;8.646;2023-06-26T04:40:40;7.95;;;6.78;;
54845;SDS011;53889;50.084;8.646;2023-06-26T04:43:07;8.52;;;7.00;;
54845;SDS011;53889;50.084;8.646;2023-06-26T04:45:34;8.35;;;6.50;;
54845;SDS011;53889;50.084;8.646;2023-06-26T04:48:02;9.65;;;7.05;;
54845;SDS011;53889;50.084;8.646;2023-06-26T04:50:30;9.68;;;7.15;;
54845;SDS011;53889;50.084;8.646;2023-06-26T04:52:58;8.95;;;6.57;;
54845;SDS011;53889;50.084;8.646;2023-06-26T04:55:25;8.55;;;6.70;;
54845;SDS011;53889;50.084;8.646;2023-06-26T04:57:53;7.85;;;6.43;;
54845;SDS011;53889;50.084;8.646;2023-06-26T05:00:20;7.28;;;6.05;;
54845;SDS011;53889;50.084;8.646;2023-06-26T05:02:47;9.38;;;6.68;;
54845;SDS011;53889;50.084;8.646;2023-06-26T05:05:15;8.40;;;6.20;;
54845;SDS011;53889;50.084;8.646;2023-06-26T05:07:42;6.85;;;5.75;;
54845;SDS011;53889;50.084;8.646;2023-06-26T05:10:10;8.77;;;6.50;;
54845;SDS011;53889;50.084;8.646;2023-06-26T05:12:37;8.10;;;6.05;;
54845;SDS011;53889;50.084;8.646;2023-06-26T05:15:04;12.27;;;6.90;;
54845;SDS011;53889;50.084;8.646;2023-06-26T05:17:31;9.77;;;6.53;;
54845;SDS011;53889;50.084;8.646;2023-06-26T05:19:57;10.98;;;6.75;;
54845;SDS011;53889;50.084;8.646;2023-06-26T05:22:25;8.80;;;5.88;;
54845;SDS011;53889;50.084;8.646;2023-06-26T05:24:53;7.88;;;6.45;;
54845;SDS011;53889;50.084;8.646;2023-06-26T05:27:24;10.10;;;6.65;;
54845;SDS011;53889;50.084;8.646;2023-06-26T05:29:51;11.63;;;7.15;;
54845;SDS011;53889;50.084;8.646;2023-06-26T05:32:18;7.75;;;6.82;;
54845;SDS011;53889;50.084;8.646;2023-06-26T05:34:46;8.10;;;6.22;;
54845;SDS011;53889;50.084;8.646;2023-06-26T05:37:14;7.60;;;6.13;;
54845;SDS011;53889;50.084;8.646;2023-06-26T05:39:47;8.75;;;6.40;;
54845;SDS011;53889;50.084;8.646;2023-06-26T05:42:15;10.52;;;7.10;;
54845;SDS011;53889;50.084;8.646;2023-06-26T05:44:42;7.43;;;6.40;;
54845;SDS011;53889;50.084;8.646;2023-06-26T05:47:09;9.00;;;6.45;;
54845;SDS011;53889;50.084;8.646;2023-06-26T05:49:35;10.23;;;7.05;;
54845;SDS011;53889;50.084;8.646;2023-06-26T05:52:02;8.48;;;6.05;;
54845;SDS011;53889;50.084;8.646;2023-06-26T05:54:30;10.40;;;6.57;;
54845;SDS011;53889;50.084;8.646;2023-06-26T05:56:58;9.10;;;6.43;;
54845;SDS011;53889;50.084;8.646;2023-06-26T05:59:25;7.95;;;6.20;;
54845;SDS011;53889;50.084;8.646;2023-06-26T06:01:52;8.45;;;6.43;;
54845;SDS011;53889;50.084;8.646;2023-06-26T06:04:19;7.07;;;6.38;;
54845;SDS011;53889;50.084;8.646;2023-06-26T06:06:46;10.05;;;7.03;;
54845;SDS011;53889;50.084;8.646;2023-06-26T06:09:12;8.68;;;6.68;;
54845;SDS011;53889;50.084;8.646;2023-06-26T06:11:39;13.65;;;6.68;;
54845;SDS011;53889;50.084;8.646;2023-06-26T06:14:08;11.10;;;6.43;;
54845;SDS011;53889;50.084;8.646;2023-06-26T06:16:34;8.50;;;6.30;;
54845;SDS011;53889;50.084;8.646;2023-06-26T06:19:01;6.78;;;6.00;;
54845;SDS011;53889;50.084;8.646;2023-06-26T06:21:28;9.18;;;6.35;;
54845;SDS011;53889;50.084;8.646;2023-06-26T06:23:55;8.65;;;5.70;;
54845;SDS011;53889;50.084;8.646;2023-06-26T06:26:21;9.52;;;5.85;;
54845;SDS011;53889;50.084;8.646;2023-06-26T06:28:48;8.35;;;5.32;;
54845;SDS011;53889;50.084;8.646;2023-06-26T06:31:16;7.47;;;5.40;;
54845;SDS011;53889;50.084;8.646;2023-06-26T06:33:43;6.75;;;5.45;;
54845;SDS011;53889;50.084;8.646;2023-06-26T06:36:10;6.28;;;5.15;;
54845;SDS011;53889;50.084;8.646;2023-06-26T06:38:37;7.22;;;5.25;;
54845;SDS011;53889;50.084;8.646;2023-06-26T06:41:03;8.30;;;5.20;;
54845;SDS011;53889;50.084;8.646;2023-06-26T06:43:30;6.57;;;4.63;;
54845;SDS011;53889;50.084;8.646;2023-06-26T06:45:57;7.18;;;4.90;;
54845;SDS011;53889;50.084;8.646;2023-06-26T06:48:25;6.13;;;4.53;;
54845;SDS011;53889;50.084;8.646;2023-06-26T06:50:51;6.70;;;4.75;;
54845;SDS011;53889;50.084;8.646;2023-06-26T06:53:18;7.57;;;4.82;;
54845;SDS011;53889;50.084;8.646;2023-06-26T06:55:46;7.20;;;4.60;;
54845;SDS011;53889;50.084;8.646;2023-06-26T06:58:13;20.30;;;4.45;;
54845;SDS011;53889;50.084;8.646;2023-06-26T07:00:41;7.60;;;4.10;;
54845;SDS011;53889;50.084;8.646;2023-06-26T07:03:08;6.70;;;4.38;;
54845;SDS011;53889;50.084;8.646;2023-06-26T07:05:36;6.28;;;4.50;;
54845;SDS011;53889;50.084;8.646;2023-06-26T07:08:03;6.28;;;4.32;;
54845;SDS011;53889;50.084;8.646;2023-06-26T07:10:30;6.55;;;4.88;;
54845;SDS011;53889;50.084;8.646;2023-06-26T07:12:57;6.55;;;4.70;;
54845;SDS011;53889;50.084;8.646;2023-06-26T07:15:24;7.43;;;5.18;;
54845;SDS011;53889;50.084;8.646;2023-06-26T07:17:50;6.40;;;5.00;;
54845;SDS011;53889;50.084;8.646;2023-06-26T07:20:17;6.60;;;4.93;;
54845;SDS011;53889;50.084;8.646;2023-06-26T07:22:45;6.30;;;5.03;;
54845;SDS011;53889;50.084;8.646;2023-06-26T07:25:12;10.25;;;7.03;;
54845;SDS011;53889;50.084;8.646;2023-06-26T07:27:39;6.07;;;4.63;;
54845;SDS011;53889;50.084;8.646;2023-06-26T07:30:07;5.50;;;4.50;;
54845;SDS011;53889;50.084;8.646;2023-06-26T07:32:34;7.10;;;4.93;;
54845;SDS011;53889;50.084;8.646;2023-06-26T07:35:01;6.85;;;5.10;;
54845;SDS011;53889;50.084;8.646;2023-06-26T07:37:29;5.70;;;4.65;;
54845;SDS011;53889;50.084;8.646;2023-06-26T07:39:57;9.32;;;5.00;;
54845;SDS011;53889;50.084;8.646;2023-06-26T07:42:23;6.15;;;4.72;;
54845;SDS011;53889;50.084;8.646;2023-06-26T07:44:50;9.27;;;4.82;;
54845;SDS011;53889;50.084;8.646;2023-06-26T07:47:17;7.20;;;4.75;;
54845;SDS011;53889;50.084;8.646;2023-06-26T07:49:44;5.60;;;4.82;;
54845;SDS011;53889;50.084;8.646;2023-06-26T07:52:10;6.18;;;4.68;;
54845;SDS011;53889;50.084;8.646;2023-06-26T07:54:38;5.57;;;4.20;;
54845;SDS011;53889;50.084;8.646;2023-06-26T07:57:06;7.05;;;4.20;;
54845;SDS011;53889;50.084;8.646;2023-06-26T07:59:33;5.93;;;4.57;;
54845;SDS011;53889;50.084;8.646;2023-06-26T08:02:01;6.53;;;4.57;;
54845;SDS011;53889;50.084;8.646;2023-06-26T08:04:28;6.50;;;4.90;;
54845;SDS011;53889;50.084;8.646;2023-06-26T08:06:57;5.60;;;4.30;;
54845;SDS011;53889;50.084;8.646;2023-06-26T08:09:25;6.40;;;4.22;;
54845;SDS011;53889;50.084;8.646;2023-06-26T08:11:53;5.90;;;4.38;;
54845;SDS011;53889;50.084;8.646;2023-06-26T08:14:21;5.88;;;4.55;;
54845;SDS011;53889;50.084;8.646;2023-06-26T08:16:48;6.30;;;4.20;;
54845;SDS011;53889;50.084;8.646;2023-06-26T08:19:15;5.72;;;4.57;;
54845;SDS011;53889;50.084;8.646;2023-06-26T08:21:43;5.70;;;4.50;;
54845;SDS011;53889;50.084;8.646;2023-06-26T08:24:10;7.18;;;4.60;;
54845;SDS011;53889;50.084;8.646;2023-06-26T08:26:38;5.43;;;4.15;;
54845;SDS011;53889;50.084;8.646;2023-06-26T08:29:05;5.35;;;4.50;;
54845;SDS011;53889;50.084;8.646;2023-06-26T08:31:35;6.05;;;4.72;;
54845;SDS011;53889;50.084;8.646;2023-06-26T08:34:02;8.25;;;4.68;;
54845;SDS011;53889;50.084;8.646;2023-06-26T08:36:29;10.02;;;4.43;;
54845;SDS011;53889;50.084;8.646;2023-06-26T08:38:56;5.95;;;4.40;;
54845;SDS011;53889;50.084;8.646;2023-06-26T08:41:22;7.63;;;4.53;;
54845;SDS011;53889;50.084;8.646;2023-06-26T08:43:49;7.28;;;4.80;;
54845;SDS011;53889;50.084;8.646;2023-06-26T08:46:17;6.55;;;4.38;;
54845;SDS011;53889;50.084;8.646;2023-06-26T08:48:48;7.32;;;4.78;;
54845;SDS011;53889;50.084;8.646;2023-06-26T08:51:20;7.40;;;4.00;;
54845;SDS011;53889;50.084;8.646;2023-06-26T08:53:50;5.93;;;4.00;;
54845;SDS011;53889;50.084;8.646;2023-06-26T08:56:22;5.07;;;4.15;;
54845;SDS011;53889;50.084;8.646;2023-06-26T08:58:50;6.70;;;3.88;;
54845;SDS011;53889;50.084;8.646;2023-06-26T09:01:17;4.55;;;3.85;;
54845;SDS011;53889;50.084;8.646;2023-06-26T09:03:44;6.35;;;4.03;;
54845;SDS011;53889;50.084;8.646;2023-06-26T09:06:12;6.82;;;4.50;;
54845;SDS011;53889;50.084;8.646;2023-06-26T09:08:39;5.05;;;4.13;;
54845;SDS011;53889;50.084;8.646;2023-06-26T09:11:06;5.78;;;4.00;;
54845;SDS011;53889;50.084;8.646;2023-06-26T09:13:33;6.20;;;3.97;;
54845;SDS011;53889;50.084;8.646;2023-06-26T09:16:04;6.05;;;4.20;;
54845;SDS011;53889;50.084;8.646;2023-06-26T09:18:33;6.20;;;3.70;;
54845;SDS011;53889;50.084;8.646;2023-06-26T09:21:03;5.68;;;3.88;;
54845;SDS011;53889;50.084;8.646;2023-06-26T09:23:33;6.47;;;3.63;;
54845;SDS011;53889;50.084;8.646;2023-06-26T09:26:01;6.25;;;3.90;;
54845;SDS011;53889;50.084;8.646;2023-06-26T09:28:29;26.25;;;5.00;;
54845;SDS011;53889;50.084;8.646;2023-06-26T09:31:00;9.75;;;4.03;;
54845;SDS011;53889;50.084;8.646;2023-06-26T09:33:32;5.18;;;3.47;;
54845;SDS011;53889;50.084;8.646;2023-06-26T09:36:02;6.40;;;3.75;;
54845;SDS011;53889;50.084;8.646;2023-06-26T09:38:32;4.88;;;3.67;;
54845;SDS011;53889;50.084;8.646;2023-06-26T09:41:00;6.20;;;3.35;;
54845;SDS011;53889;50.084;8.646;2023-06-26T09:43:27;5.10;;;3.63;;
54845;SDS011;53889;50.084;8.646;2023-06-26T09:45:53;5.93;;;3.47;;
54845;SDS011;53889;50.084;8.646;2023-06-26T09:48:20;4.97;;;3.40;;
54845;SDS011;53889;50.084;8.646;2023-06-26T09:50:47;6.45;;;3.47;;
54845;SDS011;53889;50.084;8.646;2023-06-26T09:53:15;4.78;;;3.50;;
54845;SDS011;53889;50.084;8.646;2023-06-26T09:55:43;4.65;;;3.60;;
54845;SDS011;53889;50.084;8.646;2023-06-26T09:58:10;4.45;;;3.70;;
54845;SDS011;53889;50.084;8.646;2023-06-26T10:00:40;6.25;;;3.95;;
54845;SDS011;53889;50.084;8.646;2023-06-26T10:03:07;5.07;;;3.90;;
54845;SDS011;53889;50.084;8.646;2023-06-26T10:05:34;7.25;;;4.20;;
54845;SDS011;53889;50.084;8.646;2023-06-26T10:08:01;4.60;;;3.90;;
54845;SDS011;53889;50.084;8.646;2023-06-26T10:10:32;4.88;;;4.28;;
54845;SDS011;53889;50.084;8.646;2023-06-26T10:13:03;8.40;;;4.05;;
54845;SDS011;53889;50.084;8.646;2023-06-26T10:15:34;6.83;;;4.53;;
54845;SDS011;53889;50.084;8.646;2023-06-26T10:18:02;5.65;;;4.63;;
54845;SDS011;53889;50.084;8.646;2023-06-26T10:20:29;4.90;;;3.92;;
54845;SDS011;53889;50.084;8.646;2023-06-26T10:22:57;5.55;;;3.95;;
54845;SDS011;53889;50.084;8.646;2023-06-26T10:25:26;4.35;;;3.20;;
54845;SDS011;53889;50.084;8.646;2023-06-26T10:27:57;6.18;;;3.42;;
54845;SDS011;53889;50.084;8.646;2023-06-26T10:30:27;3.90;;;3.20;;
54845;SDS011;53889;50.084;8.646;2023-06-26T10:32:57;5.88;;;3.90;;
54845;SDS011;53889;50.084;8.646;2023-06-26T10:35:26;5.80;;;3.60;;
54845;SDS011;53889;50.084;8.646;2023-06-26T10:37:53;3.90;;;3.20;;
54845;SDS011;53889;50.084;8.646;2023-06-26T10:40:27;5.82;;;3.30;;
54845;SDS011;53889;50.084;8.646;2023-06-26T10:43:06;6.60;;;3.33;;
54845;SDS011;53889;50.084;8.646;2023-06-26T10:45:34;5.68;;;3.33;;
54845;SDS011;53889;50.084;8.646;2023-06-26T10:48:02;5.95;;;3.00;;
54845;SDS011;53889;50.084;8.646;2023-06-26T10:50:30;4.75;;;3.03;;
54845;SDS011;53889;50.084;8.646;2023-06-26T10:53:10;5.72;;;3.33;;
54845;SDS011;53889;50.084;8.646;2023-06-26T10:55:42;6.78;;;3.50;;
54845;SDS011;53889;50.084;8.646;2023-06-26T10:58:27;6.32;;;3.35;;
54845;SDS011;53889;50.084;8.646;2023-06-26T11:03:47;4.60;;;3.20;;
54845;SDS011;53889;50.084;8.646;2023-06-26T11:06:17;4.72;;;3.13;;
54845;SDS011;53889;50.084;8.646;2023-06-26T11:08:45;3.92;;;3.20;;
54845;SDS011;53889;50.084;8.646;2023-06-26T11:11:13;4.65;;;3.65;;
54845;SDS011;53889;50.084;8.646;2023-06-26T11:13:41;3.70;;;3.10;;
54845;SDS011;53889;50.084;8.646;2023-06-26T11:16:10;6.22;;;3.50;;
54845;SDS011;53889;50.084;8.646;2023-06-26T11:18:38;4.28;;;3.33;;
54845;SDS011;53889;50.084;8.646;2023-06-26T11:21:05;3.97;;;3.20;;
54845;SDS011;53889;50.084;8.646;2023-06-26T11:23:32;4.90;;;3.10;;
54845;SDS011;53889;50.084;8.646;2023-06-26T11:26:14;5.05;;;3.47;;
54845;SDS011;53889;50.084;8.646;2023-06-26T11:28:47;5.15;;;3.10;;
54845;SDS011;53889;50.084;8.646;2023-06-26T11:31:24;5.70;;;3.33;;
54845;SDS011;53889;50.084;8.646;2023-06-26T11:33:52;7.20;;;3.90;;
54845;SDS011;53889;50.084;8.646;2023-06-26T11:36:19;4.75;;;3.50;;
54845;SDS011;53889;50.084;8.646;2023-06-26T11:38:52;6.57;;;3.15;;
54845;SDS011;53889;50.084;8.646;2023-06-26T11:41:20;7.57;;;3.33;;
54845;SDS011;53889;50.084;8.646;2023-06-26T11:43:48;4.32;;;3.00;;
54845;SDS011;53889;50.084;8.646;2023-06-26T11:46:15;5.93;;;3.67;;
54845;SDS011;53889;50.084;8.646;2023-06-26T11:48:43;7.03;;;3.28;;
54845;SDS011;53889;50.084;8.646;2023-06-26T11:51:12;5.35;;;3.33;;
54845;SDS011;53889;50.084;8.646;2023-06-26T11:53:39;6.82;;;3.35;;
54845;SDS011;53889;50.084;8.646;2023-06-26T11:56:07;5.00;;;3.45;;
54845;SDS011;53889;50.084;8.646;2023-06-26T11:58:35;4.10;;;3.20;;
54845;SDS011;53889;50.084;8.646;2023-06-26T12:01:03;4.30;;;3.38;;
54845;SDS011;53889;50.084;8.646;2023-06-26T12:03:31;4.88;;;3.17;;
54845;SDS011;53889;50.084;8.646;2023-06-26T12:05:58;4.90;;;3.20;;
54845;SDS011;53889;50.084;8.646;2023-06-26T12:08:28;6.00;;;3.35;;
54845;SDS011;53889;50.084;8.646;2023-06-26T12:10:55;6.35;;;3.75;;
54845;SDS011;53889;50.084;8.646;2023-06-26T12:13:22;4.97;;;3.53;;
54845;SDS011;53889;50.084;8.646;2023-06-26T12:15:49;4.78;;;3.35;;
54845;SDS011;53889;50.084;8.646;2023-06-26T12:18:17;7.07;;;3.90;;
54845;SDS011;53889;50.084;8.646;2023-06-26T12:20:45;5.60;;;3.70;;
54845;SDS011;53889;50.084;8.646;2023-06-26T12:23:12;5.00;;;3.30;;
54845;SDS011;53889;50.084;8.646;2023-06-26T12:25:39;4.90;;;3.55;;
54845;SDS011;53889;50.084;8.646;2023-06-26T12:28:14;7.60;;;3.80;;
54845;SDS011;53889;50.084;8.646;2023-06-26T12:30:45;8.75;;;3.83;;
54845;SDS011;53889;50.084;8.646;2023-06-26T12:33:12;9.98;;;4.05;;
54845;SDS011;53889;50.084;8.646;2023-06-26T12:35:42;7.78;;;3.83;;
54845;SDS011;53889;50.084;8.646;2023-06-26T12:38:09;10.50;;;3.88;;
54845;SDS011;53889;50.084;8.646;2023-06-26T12:40:44;6.45;;;3.50;;
54845;SDS011;53889;50.084;8.646;2023-06-26T12:43:11;7.68;;;3.50;;
54845;SDS011;53889;50.084;8.646;2023-06-26T12:45:48;11.50;;;4.10;;
54845;SDS011;53889;50.084;8.646;2023-06-26T12:48:15;12.85;;;4.30;;
54845;SDS011;53889;50.084;8.646;2023-06-26T12:50:44;11.23;;;4.10;;
54845;SDS011;53889;50.084;8.646;2023-06-26T12:53:11;13.18;;;4.63;;
54845;SDS011;53889;50.084;8.646;2023-06-26T12:55:38;19.08;;;5.82;;
54845;SDS011;53889;50.084;8.646;2023-06-26T12:58:05;9.88;;;4.00;;
54845;SDS011;53889;50.084;8.646;2023-06-26T13:00:33;10.95;;;3.95;;
54845;SDS011;53889;50.084;8.646;2023-06-26T13:03:00;7.75;;;3.47;;
54845;SDS011;53889;50.084;8.646;2023-06-26T13:05:26;6.47;;;3.25;;
54845;SDS011;53889;50.084;8.646;2023-06-26T13:07:54;8.35;;;3.30;;
54845;SDS011;53889;50.084;8.646;2023-06-26T13:10:21;5.22;;;3.17;;
54845;SDS011;53889;50.084;8.646;2023-06-26T13:12:48;8.30;;;3.30;;
54845;SDS011;53889;50.084;8.646;2023-06-26T13:15:15;8.60;;;3.33;;
54845;SDS011;53889;50.084;8.646;2023-06-26T13:17:41;6.82;;;3.75;;
54845;SDS011;53889;50.084;8.646;2023-06-26T13:20:09;7.45;;;3.20;;
54845;SDS011;53889;50.084;8.646;2023-06-26T13:22:36;7.68;;;3.40;;
54845;SDS011;53889;50.084;8.646;2023-06-26T13:25:05;105.15;;;17.02;;
54845;SDS011;53889;50.084;8.646;2023-06-26T13:27:32;12.30;;;3.95;;
54845;SDS011;53889;50.084;8.646;2023-06-26T13:29:58;144.57;;;18.85;;
54845;SDS011;53889;50.084;8.646;2023-06-26T13:32:27;39.72;;;8.02;;
54845;SDS011;53889;50.084;8.646;2023-06-26T13:34:53;9.25;;;3.38;;
54845;SDS011;53889;50.084;8.646;2023-06-26T13:37:20;10.55;;;4.00;;
54845;SDS011;53889;50.084;8.646;2023-06-26T13:39:47;8.10;;;3.22;;
54845;SDS011;53889;50.084;8.646;2023-06-26T13:42:16;28.70;;;5.60;;
54845;SDS011;53889;50.084;8.646;2023-06-26T13:44:43;20.25;;;4.38;;
54845;SDS011;53889;50.084;8.646;2023-06-26T13:47:12;12.20;;;3.70;;
54845;SDS011;53889;50.084;8.646;2023-06-26T13:49:40;21.75;;;4.35;;
54845;SDS011;53889;50.084;8.646;2023-06-26T13:52:07;28.25;;;4.65;;
54845;SDS011;53889;50.084;8.646;2023-06-26T13:54:34;12.75;;;4.40;;
54845;SDS011;53889;50.084;8.646;2023-06-26T13:57:01;11.07;;;3.50;;
54845;SDS011;53889;50.084;8.646;2023-06-26T13:59:29;6.38;;;2.92;;
54845;SDS011;53889;50.084;8.646;2023-06-26T14:01:56;8.95;;;3.17;;
54845;SDS011;53889;50.084;8.646;2023-06-26T14:04:24;8.73;;;3.47;;
54845;SDS011;53889;50.084;8.646;2023-06-26T14:06:50;4.47;;;2.50;;
54845;SDS011;53889;50.084;8.646;2023-06-26T14:09:17;6.25;;;2.92;;
54845;SDS011;53889;50.084;8.646;2023-06-26T14:11:44;6.47;;;2.20;;
54845;SDS011;53889;50.084;8.646;2023-06-26T14:14:11;6.43;;;2.55;;
54845;SDS011;53889;50.084;8.646;2023-06-26T14:16:39;6.60;;;2.47;;
54845;SDS011;53889;50.084;8.646;2023-06-26T14:19:06;8.30;;;2.75;;
54845;SDS011;53889;50.084;8.646;2023-06-26T14:21:39;5.32;;;2.85;;
54845;SDS011;53889;50.084;8.646;2023-06-26T14:24:06;4.35;;;2.30;;
54845;SDS011;53889;50.084;8.646;2023-06-26T14:26:32;6.82;;;2.30;;
54845;SDS011;53889;50.084;8.646;2023-06-26T14:28:59;6.68;;;2.47;;
54845;SDS011;53889;50.084;8.646;2023-06-26T14:31:27;5.97;;;2.35;;
54845;SDS011;53889;50.084;8.646;2023-06-26T14:33:55;5.20;;;2.20;;
54845;SDS011;53889;50.084;8.646;2023-06-26T14:36:24;6.97;;;2.10;;
54845;SDS011;53889;50.084;8.646;2023-06-26T14:38:51;5.50;;;2.00;;
54845;SDS011;53889;50.084;8.646;2023-06-26T14:41:18;6.25;;;2.00;;
54845;SDS011;53889;50.084;8.646;2023-06-26T14:43:45;4.40;;;2.00;;
54845;SDS011;53889;50.084;8.646;2023-06-26T14:46:11;4.70;;;1.90;;
54845;SDS011;53889;50.084;8.646;2023-06-26T14:48:38;5.32;;;2.00;;
54845;SDS011;53889;50.084;8.646;2023-06-26T14:51:06;5.70;;;1.95;;
54845;SDS011;53889;50.084;8.646;2023-06-26T14:53:33;8.25;;;2.08;;